Time;durP1;ratioP1;P1;durP2;ratioP2;P2;SDS_P1;SDS_P2;PMS_P1;PMS_P2;Temp;Humidity;BMP_temperature;BMP_pressure;BME280_temperature;BME280_humidity;BME280_pressure;Samples;Min_cycle;Max_cycle;Signal;HPM_P1;HPM_P2
2021/05/29 00:00:56;;;;;;;22.00;14.83;;;;;;;8.51;69.29;97399.31;1777061;79;25658;-82
2021/05/29 00:03:25;;;;;;;19.27;13.60;;;;;;;8.55;69.46;97405.97;1771406;79;25709;-81
2021/05/29 00:05:53;;;;;;;21.10;13.62;;;;;;;8.55;69.70;97403.27;1780032;78;26752;-82
2021/05/29 00:08:20;;;;;;;21.60;13.98;;;;;;;8.49;69.79;97406.74;1773122;79;25689;-80
2021/05/29 00:10:51;;;;;;;22.85;14.45;;;;;;;8.49;69.86;97406.74;1800164;79;25585;-83
2021/05/29 00:13:20;;;;;;;23.73;14.05;;;;;;;8.54;70.00;97405.65;1797996;78;28155;-83
2021/05/29 00:15:47;;;;;;;27.20;15.98;;;;;;;8.49;70.09;97405.40;1798911;79;26149;-83
2021/05/29 00:18:14;;;;;;;25.08;16.95;;;;;;;8.53;70.13;97403.98;1792606;79;27852;-80
2021/05/29 00:20:41;;;;;;;26.20;15.55;;;;;;;8.55;70.20;97403.27;1776903;79;25851;-82
2021/05/29 00:23:08;;;;;;;23.80;14.43;;;;;;;8.59;70.23;97408.04;1768388;79;25654;-82
2021/05/29 00:25:36;;;;;;;24.40;16.12;;;;;;;8.60;70.31;97401.63;1773707;79;26308;-83
2021/05/29 00:28:04;;;;;;;23.30;15.43;;;;;;;8.58;70.37;97402.86;1773244;78;26666;-81
2021/05/29 00:30:30;;;;;;;25.97;15.98;;;;;;;8.62;70.44;97404.13;1775492;79;27317;-82
2021/05/29 00:32:57;;;;;;;23.30;15.63;;;;;;;8.66;70.50;97404.05;1793739;78;25570;-82
2021/05/29 00:35:24;;;;;;;29.23;19.42;;;;;;;8.68;70.65;97403.34;1788343;78;25575;-82
2021/05/29 00:37:51;;;;;;;31.85;21.20;;;;;;;8.66;70.62;97398.16;1793336;78;25926;-83
2021/05/29 00:40:18;;;;;;;32.88;23.05;;;;;;;8.71;70.70;97403.44;1804095;79;25724;-82
2021/05/29 00:42:45;;;;;;;35.80;25.02;;;;;;;8.73;70.74;97396.84;1791968;79;27374;-82
2021/05/29 00:45:13;;;;;;;41.08;27.67;;;;;;;8.75;70.77;97397.47;1782317;79;25622;-81
2021/05/29 00:47:39;;;;;;;43.70;27.10;;;;;;;8.73;70.85;97402.73;1783856;79;25610;-83
2021/05/29 00:50:10;;;;;;;42.70;27.05;;;;;;;8.74;71.12;97393.11;1773535;78;25666;-83
2021/05/29 00:52:39;;;;;;;37.58;22.93;;;;;;;8.74;71.08;97401.70;1761412;79;26601;-81
2021/05/29 00:55:14;;;;;;;40.48;25.90;;;;;;;8.77;71.23;97405.34;1777343;79;28322;-83
2021/05/29 00:57:45;;;;;;;43.73;26.55;;;;;;;8.78;71.20;97397.08;1781232;79;25675;-82
2021/05/29 01:00:14;;;;;;;41.70;26.62;;;;;;;8.83;71.28;97401.33;1761356;78;25826;-82
2021/05/29 01:02:40;;;;;;;39.63;22.80;;;;;;;8.88;71.24;97398.88;1791314;79;25754;-80
2021/05/29 01:05:10;;;;;;;38.85;23.65;;;;;;;8.89;71.24;97392.47;1775023;79;25718;-82
2021/05/29 01:07:37;;;;;;;35.78;22.35;;;;;;;8.93;71.25;97391.56;1788157;79;27321;-82
2021/05/29 01:10:08;;;;;;;30.88;18.73;;;;;;;8.94;71.31;97391.33;1775251;79;25741;-81
2021/05/29 01:12:36;;;;;;;26.62;17.17;;;;;;;8.96;71.35;97382.54;1766154;78;25550;-82
2021/05/29 01:15:07;;;;;;;24.85;15.35;;;;;;;8.99;71.30;97390.22;1788167;79;26385;-81
2021/05/29 01:17:34;;;;;;;24.35;15.10;;;;;;;9.02;71.27;97387.13;1799228;78;25672;-83
2021/05/29 01:20:01;;;;;;;22.42;14.55;;;;;;;9.07;71.29;97382.98;1788206;78;28046;-82
2021/05/29 01:22:47;;;;;;;24.12;16.15;;;;;;;9.09;71.32;97383.61;1788149;79;26312;-81
2021/05/29 01:25:22;;;;;;;26.35;15.50;;;;;;;9.11;71.45;97384.25;1785776;79;25637;-79
2021/05/29 01:28:14;;;;;;;21.42;14.68;;;;;;;9.12;71.43;97385.91;1787015;79;25740;-81
2021/05/29 01:30:47;;;;;;;22.98;14.87;;;;;;;9.13;71.47;97391.61;1773600;79;25568;-83
2021/05/29 01:33:19;;;;;;;27.27;15.38;;;;;;;9.10;71.63;97380.72;1781477;79;27336;-81
2021/05/29 01:35:46;;;;;;;21.90;15.70;;;;;;;9.11;71.66;97380.20;1777400;79;25921;-79
2021/05/29 01:38:16;;;;;;;21.50;14.73;;;;;;;9.14;71.80;97383.85;1773482;79;25623;-82
2021/05/29 01:40:44;;;;;;;21.05;13.93;;;;;;;9.14;71.82;97383.85;1776542;79;26231;-82
2021/05/29 01:43:12;;;;;;;19.82;13.25;;;;;;;9.15;71.91;97380.13;1765711;79;25711;-81
2021/05/29 01:45:42;;;;;;;19.32;13.53;;;;;;;9.16;71.98;97376.41;1767364;79;27326;-81
2021/05/29 01:48:10;;;;;;;19.67;13.40;;;;;;;9.18;72.04;97375.14;1790573;79;25847;-82
2021/05/29 01:50:49;;;;;;;22.25;13.65;;;;;;;9.19;72.07;97374.62;1777013;78;25655;-82
2021/05/29 01:53:22;;;;;;;17.82;12.63;;;;;;;9.22;72.12;97370.19;1767152;79;25611;-82
2021/05/29 01:55:49;;;;;;;18.15;12.53;;;;;;;9.25;72.13;97371.14;1786059;78;25648;-82
2021/05/29 01:58:17;;;;;;;18.55;12.25;;;;;;;9.25;72.23;97363.06;1794991;78;27519;-82
2021/05/29 02:00:45;;;;;;;16.37;11.48;;;;;;;9.26;72.30;97363.37;1771509;78;25607;-82
2021/05/29 02:03:11;;;;;;;18.10;12.00;;;;;;;9.28;72.37;97362.14;1771279;79;25698;-82
2021/05/29 02:05:39;;;;;;;18.90;11.48;;;;;;;9.29;72.49;97355.72;1770377;79;25912;-82
2021/05/29 02:08:09;;;;;;;22.07;11.08;;;;;;;9.31;72.42;97362.23;1792153;79;25643;-82
2021/05/29 02:10:38;;;;;;;16.75;11.45;;;;;;;9.32;72.37;97363.37;1794318;78;27363;-83
2021/05/29 02:13:09;;;;;;;19.07;12.03;;;;;;;9.34;72.35;97364.52;1769068;79;25814;-83
2021/05/29 02:15:38;;;;;;;20.80;12.78;;;;;;;9.33;72.42;97365.55;1788117;79;25604;-81
2021/05/29 02:18:08;;;;;;;20.43;12.28;;;;;;;9.33;72.45;97362.34;1769510;79;25949;-82
2021/05/29 02:21:02;;;;;;;17.02;13.13;;;;;;;9.36;72.58;97357.06;1780206;78;25542;-81
2021/05/29 02:23:36;;;;;;;19.82;11.95;;;;;;;9.38;72.56;97361.73;1779217;79;27332;-81
2021/05/29 02:26:06;;;;;;;19.48;11.97;;;;;;;9.39;72.66;97359.36;1782377;79;25578;-81
2021/05/29 02:28:36;;;;;;;19.23;12.88;;;;;;;9.37;72.79;97353.34;1792480;79;25692;-82
2021/05/29 02:31:05;;;;;;;16.50;13.00;;;;;;;9.38;72.82;97350.96;1778214;79;26438;-81
2021/05/29 02:33:33;;;;;;;16.60;11.68;;;;;;;9.38;72.89;97345.58;1770633;79;25648;-80
2021/05/29 02:36:00;;;;;;;17.95;12.50;;;;;;;9.39;72.91;97348.59;1793118;78;27179;-83
2021/05/29 02:38:29;;;;;;;20.95;13.18;;;;;;;9.40;72.90;97344.86;1792996;79;25691;-82
2021/05/29 02:40:58;;;;;;;16.00;11.97;;;;;;;9.44;73.01;97349.30;1767072;79;25593;-81
2021/05/29 02:43:25;;;;;;;17.95;12.28;;;;;;;9.44;73.01;97347.44;1760982;79;25703;-81
2021/05/29 02:45:52;;;;;;;20.45;12.43;;;;;;;9.46;73.08;97347.23;1761279;78;25676;-82
2021/05/29 02:48:19;;;;;;;15.80;11.63;;;;;;;9.46;73.10;97349.41;1778965;79;27323;-82
2021/05/29 02:50:46;;;;;;;16.15;11.68;;;;;;;9.49;73.14;97346.83;1792169;79;26604;-82
2021/05/29 02:53:15;;;;;;;19.37;12.88;;;;;;;9.47;73.14;97336.25;1779371;79;25723;-82
2021/05/29 02:55:43;;;;;;;19.92;13.10;;;;;;;9.50;73.14;97340.41;1766609;79;25838;-81
2021/05/29 02:58:10;;;;;;;18.85;12.73;;;;;;;9.47;73.31;97343.50;1774250;79;25736;-82
2021/05/29 03:00:41;;;;;;;17.20;12.23;;;;;;;9.45;73.31;97341.02;1783168;79;27307;-82
2021/05/29 03:03:08;;;;;;;19.47;12.83;;;;;;;9.50;73.34;97347.14;1775915;79;25622;-82
2021/05/29 03:05:38;;;;;;;18.57;11.97;;;;;;;9.47;73.51;97342.98;1764016;79;25572;-81
2021/05/29 03:08:06;;;;;;;21.25;12.73;;;;;;;9.44;73.60;97342.05;1803196;78;25664;-82
2021/05/29 03:10:33;;;;;;;19.32;12.73;;;;;;;9.47;73.71;97341.64;1792637;78;25654;-81
2021/05/29 03:13:00;;;;;;;19.92;13.05;;;;;;;9.46;73.70;97336.45;1790399;78;28062;-81
2021/05/29 03:15:28;;;;;;;16.42;12.60;;;;;;;9.49;73.74;97336.88;1761254;79;25670;-82
2021/05/29 03:17:58;;;;;;;18.92;12.18;;;;;;;9.52;73.67;97339.17;1771267;79;26248;-81
2021/05/29 03:20:28;;;;;;;17.85;12.30;;;;;;;9.52;73.64;97332.95;1803867;79;25906;-81
2021/05/29 03:22:55;;;;;;;17.05;12.33;;;;;;;9.53;73.63;97332.75;1784313;78;25610;-81
2021/05/29 03:25:22;;;;;;;15.25;10.98;;;;;;;9.56;73.67;97332.83;1774686;79;27464;-81
2021/05/29 03:27:51;;;;;;;18.40;12.58;;;;;;;9.57;73.77;97335.84;1779593;79;25736;-80
2021/05/29 03:30:26;;;;;;;20.97;11.65;;;;;;;9.61;73.79;97347.87;1776062;79;25743;-81
2021/05/29 03:32:53;;;;;;;18.55;11.93;;;;;;;9.59;73.83;97338.64;1763579;78;25674;-82
2021/05/29 03:35:20;;;;;;;16.82;12.47;;;;;;;9.60;73.89;97330.88;1794122;79;26367;-82
2021/05/29 03:37:47;;;;;;;18.90;12.55;;;;;;;9.63;73.99;97335.03;1797366;77;28234;-81
2021/05/29 03:40:15;;;;;;;18.40;12.05;;;;;;;9.66;74.06;97334.08;1792603;79;25569;-82
2021/05/29 03:42:43;;;;;;;16.73;11.57;;;;;;;9.69;74.03;97335.02;1803715;79;25973;-80
2021/05/29 03:45:13;;;;;;;16.90;12.07;;;;;;;9.74;74.06;97331.70;1768986;78;25871;-80
2021/05/29 03:47:41;;;;;;;17.37;11.78;;;;;;;9.74;74.10;97331.19;1794376;79;25740;-80
2021/05/29 03:50:10;;;;;;;16.25;11.95;;;;;;;9.71;74.21;97328.91;1796245;78;27497;-81
2021/05/29 03:52:37;;;;;;;18.75;13.20;;;;;;;9.64;74.21;97332.13;1775211;79;25691;-80
2021/05/29 03:55:05;;;;;;;17.73;13.15;;;;;;;9.65;74.43;97333.80;1776416;79;25731;-81
2021/05/29 03:57:32;;;;;;;21.10;13.95;;;;;;;9.61;74.39;97329.84;1780240;79;25697;-80
2021/05/29 03:59:58;;;;;;;18.85;13.62;;;;;;;9.63;74.50;97337.20;1761968;79;25598;-81
2021/05/29 04:02:25;;;;;;;20.25;13.85;;;;;;;9.67;74.51;97335.73;1765895;79;27345;-81
2021/05/29 04:04:52;;;;;;;23.32;14.75;;;;;;;9.72;74.55;97336.47;1795663;78;25761;-82
2021/05/29 04:07:19;;;;;;;25.48;15.50;;;;;;;9.70;74.66;97340.72;1802594;79;26280;-81
2021/05/29 04:09:45;;;;;;;20.27;15.90;;;;;;;9.66;74.79;97340.81;1787700;79;25889;-81
2021/05/29 04:12:12;;;;;;;23.38;16.75;;;;;;;9.62;74.86;97335.55;1798114;79;25217;-81
2021/05/29 04:14:38;;;;;;;26.80;19.60;;;;;;;9.62;74.88;97332.84;1792666;79;27340;-81
2021/05/29 04:17:05;;;;;;;25.52;19.48;;;;;;;9.65;74.93;97337.83;1789012;79;25605;-81
2021/05/29 04:19:31;;;;;;;26.37;21.57;;;;;;;9.70;74.97;97341.23;1787106;79;25689;-81
2021/05/29 04:21:58;;;;;;;29.60;21.57;;;;;;;9.74;74.96;97343.32;1774352;79;25602;-81
2021/05/29 04:24:25;;;;;;;31.57;21.77;;;;;;;9.75;75.00;97337.41;1771237;78;26156;-82
2021/05/29 04:26:51;;;;;;;29.80;22.67;;;;;;;9.74;74.94;97341.97;1788185;78;28020;-82
2021/05/29 04:29:18;;;;;;;28.42;21.93;;;;;;;9.74;75.08;97341.97;1787505;79;25543;-82
2021/05/29 04:31:45;;;;;;;29.12;20.23;;;;;;;9.68;75.18;97342.78;1767756;79;25604;-82
2021/05/29 04:34:11;;;;;;;23.92;18.07;;;;;;;9.66;75.26;97343.50;1778774;79;25723;-82
2021/05/29 04:36:38;;;;;;;24.70;18.70;;;;;;;9.69;75.37;97344.45;1785737;79;25660;-81
2021/05/29 04:39:05;;;;;;;21.37;17.85;;;;;;;9.66;75.38;97337.31;1768408;79;26965;-81
2021/05/29 04:41:32;;;;;;;22.07;17.37;;;;;;;9.62;75.38;97340.94;1794465;79;25564;-80
2021/05/29 04:43:58;;;;;;;23.70;17.48;;;;;;;9.63;75.56;97335.86;1783569;79;26205;-81
2021/05/29 04:46:26;;;;;;;25.82;17.25;;;;;;;9.65;75.61;97332.44;1765911;79;25665;-81
2021/05/29 04:48:53;;;;;;;26.73;18.80;;;;;;;9.66;75.73;97338.66;1766508;79;25551;-82
2021/05/29 04:51:20;;;;;;;25.48;18.40;;;;;;;9.69;75.70;97332.32;1774183;79;27373;-82
2021/05/29 04:53:48;;;;;;;21.80;16.97;;;;;;;9.72;75.70;97335.95;1763310;79;25716;-82
2021/05/29 04:56:16;;;;;;;22.35;17.45;;;;;;;9.77;75.81;97333.17;1790351;79;25525;-82
2021/05/29 04:58:43;;;;;;;25.37;17.55;;;;;;;9.80;75.76;97331.38;1801509;79;25862;-82
2021/05/29 05:01:12;;;;;;;26.48;18.52;;;;;;;9.82;75.77;97334.19;1804044;78;25657;-83
2021/05/29 05:03:39;;;;;;;24.65;17.05;;;;;;;9.88;75.87;97336.58;1802842;79;28090;-81
2021/05/29 05:06:11;;;;;;;23.50;17.32;;;;;;;9.88;75.86;97335.23;1788110;79;25644;-82
2021/05/29 05:08:38;;;;;;;25.08;18.50;;;;;;;9.86;75.92;97338.12;1788529;79;25657;-82
2021/05/29 05:11:04;;;;;;;24.05;18.25;;;;;;;9.88;75.96;97347.36;1779509;79;25661;-82
2021/05/29 05:13:31;;;;;;;22.60;17.42;;;;;;;9.88;76.07;97358.15;1756351;79;25640;-82
2021/05/29 05:15:57;;;;;;;22.37;16.97;;;;;;;9.87;75.94;97355.14;1786418;80;27413;-82
2021/05/29 05:18:24;;;;;;;26.62;18.20;;;;;;;9.90;75.95;97354.18;1788225;79;25641;-80
2021/05/29 05:20:51;;;;;;;22.55;16.40;;;;;;;9.95;76.04;97361.66;1795408;79;25653;-82
2021/05/29 05:23:22;;;;;;;23.40;16.70;;;;;;;9.96;75.92;97365.50;1774762;79;26418;-80
2021/05/29 05:25:51;;;;;;;24.87;16.77;;;;;;;9.92;75.81;97364.24;1766081;79;25803;-83
2021/05/29 05:28:18;;;;;;;21.45;15.25;;;;;;;9.90;75.83;97358.23;1782608;79;27380;-82
2021/05/29 05:30:44;;;;;;;20.95;16.42;;;;;;;9.91;75.85;97359.89;1794797;79;25667;-82
2021/05/29 05:33:11;;;;;;;20.80;14.45;;;;;;;9.92;75.89;97363.41;1784736;79;26299;-82
2021/05/29 05:35:38;;;;;;;19.73;14.45;;;;;;;9.93;75.92;97366.42;1798260;79;26572;-81
2021/05/29 05:38:05;;;;;;;17.85;13.70;;;;;;;9.91;75.94;97370.67;1775157;79;25548;-81
2021/05/29 05:40:31;;;;;;;18.75;14.13;;;;;;;9.94;75.96;97381.05;1755517;79;27365;-81
2021/05/29 05:42:58;;;;;;;20.50;14.13;;;;;;;9.94;75.95;97381.05;1788862;79;25245;-81
2021/05/29 05:45:24;;;;;;;22.00;14.00;;;;;;;9.92;75.97;97385.81;1770475;79;26196;-81
2021/05/29 05:47:51;;;;;;;16.30;13.03;;;;;;;9.93;75.97;97393.39;1784031;79;26340;-85
2021/05/29 05:50:18;;;;;;;15.55;12.65;;;;;;;9.82;76.07;97395.36;1764603;79;25678;-82
2021/05/29 05:52:44;;;;;;;19.23;12.75;;;;;;;9.72;76.16;97402.00;1755232;79;27474;-81
2021/05/29 05:55:12;;;;;;;15.63;11.45;;;;;;;9.74;76.32;97401.27;1767231;79;25574;-82
2021/05/29 05:57:39;;;;;;;14.47;10.78;;;;;;;9.73;76.37;97405.00;1792276;79;25630;-84
2021/05/29 06:00:16;;;;;;;11.80;9.28;;;;;;;9.75;76.38;97408.33;1767401;79;25894;-85
2021/05/29 06:02:45;;;;;;;13.68;8.90;;;;;;;9.73;76.28;97408.22;1780515;79;25516;-80
2021/05/29 06:05:15;;;;;;;12.55;7.62;;;;;;;9.73;76.18;97410.39;1797948;79;27412;-82
2021/05/29 06:07:42;;;;;;;9.63;6.62;;;;;;;9.73;76.15;97415.79;1758222;79;25741;-82
2021/05/29 06:10:10;;;;;;;7.22;6.15;;;;;;;9.71;76.09;97408.42;1759405;79;25570;-84
2021/05/29 06:12:42;;;;;;;8.15;5.90;;;;;;;9.72;76.02;97412.78;1784242;79;25745;-87
2021/05/29 06:20:31;;;;;;;6.15;5.33;;;;;;;9.52;76.23;97416.48;1766624;79;25800;-83
2021/05/29 06:22:58;;;;;;;7.60;5.62;;;;;;;9.50;76.41;97414.50;1771512;79;25615;-85
2021/05/29 06:25:25;;;;;;;8.50;5.75;;;;;;;9.51;76.51;97422.39;1781071;79;25681;-81
2021/05/29 06:27:52;;;;;;;7.75;5.22;;;;;;;9.54;76.64;97421.95;1764922;79;25624;-86
2021/05/29 06:30:19;;;;;;;6.85;5.10;;;;;;;9.55;76.65;97418.23;1763094;79;27285;-85
2021/05/29 06:32:46;;;;;;;6.25;5.42;;;;;;;9.61;76.66;97426.03;1763558;79;25834;-87
2021/05/29 06:35:13;;;;;;;7.92;6.00;;;;;;;9.66;76.47;97424.36;1758524;79;25659;-85
2021/05/29 06:37:41;;;;;;;7.78;6.40;;;;;;;9.70;76.36;97433.70;1769920;79;25667;-83
2021/05/29 06:40:08;;;;;;;8.58;6.83;;;;;;;9.75;76.30;97436.63;1769883;79;25316;-83
2021/05/29 06:42:35;;;;;;;7.83;6.47;;;;;;;9.79;76.19;97440.24;1766393;78;27343;-85
2021/05/29 06:45:04;;;;;;;8.30;6.37;;;;;;;9.84;76.22;97439.95;1776700;78;25632;-84
2021/05/29 06:47:30;;;;;;;6.97;5.53;;;;;;;9.86;76.14;97437.05;1779521;79;25667;-86
2021/05/29 06:49:57;;;;;;;7.87;6.03;;;;;;;9.89;76.01;97444.73;1780238;79;26569;-87
2021/05/29 06:52:27;;;;;;;7.03;6.00;;;;;;;9.84;75.84;97451.25;1780753;79;26284;-84
2021/05/29 07:00:09;;;;;;;6.55;4.83;;;;;;;9.98;75.86;97452.93;1758522;79;25823;-86
2021/05/29 07:02:36;;;;;;;6.50;5.03;;;;;;;10.02;75.71;97454.19;1769864;79;25774;-87
2021/05/29 07:05:06;;;;;;;4.92;4.45;;;;;;;10.09;75.78;97449.62;1769343;79;25698;-87
2021/05/29 07:07:32;;;;;;;8.35;4.83;;;;;;;10.17;75.72;97452.09;1788315;79;27257;-86
2021/05/29 07:09:59;;;;;;;4.25;3.80;;;;;;;10.23;75.69;97447.27;1770718;79;26481;-88
2021/05/29 07:12:26;;;;;;;4.28;3.72;;;;;;;10.28;75.40;97444.76;1803853;79;25708;-87
2021/05/29 07:14:52;;;;;;;5.22;2.87;;;;;;;10.34;75.39;97446.64;1792766;79;25646;-85
2021/05/29 07:17:19;;;;;;;5.20;3.08;;;;;;;10.37;75.10;97436.78;1789535;79;25627;-87
2021/05/29 07:19:46;;;;;;;4.72;3.33;;;;;;;10.35;74.94;97442.91;1804010;79;27528;-86
2021/05/29 07:22:12;;;;;;;3.77;3.33;;;;;;;10.38;74.98;97439.80;1789094;79;25665;-86
2021/05/29 07:24:39;;;;;;;3.10;2.90;;;;;;;10.39;75.07;97441.42;1790548;79;25601;-87
2021/05/29 07:27:06;;;;;;;4.25;3.05;;;;;;;10.37;75.13;97436.78;1776076;79;26504;-83
2021/05/29 07:29:33;;;;;;;3.67;3.05;;;;;;;10.39;75.09;97440.08;1792095;79;25550;-87
2021/05/29 07:31:59;;;;;;;5.40;3.25;;;;;;;10.42;74.86;97443.72;1788062;79;27457;-86
2021/05/29 07:34:26;;;;;;;4.25;2.95;;;;;;;10.41;74.80;97439.35;1787022;79;25545;-83
2021/05/29 07:36:52;;;;;;;3.75;2.60;;;;;;;10.43;74.80;97443.20;1769936;79;25703;-85
2021/05/29 07:39:19;;;;;;;4.50;2.90;;;;;;;10.44;74.81;97447.03;1764618;81;26325;-87
2021/05/29 07:41:46;;;;;;;3.10;2.80;;;;;;;10.44;74.70;97449.73;1751314;81;25659;-86
2021/05/29 07:44:13;;;;;;;4.25;3.00;;;;;;;10.44;74.65;97451.61;1746743;81;28052;-86
2021/05/29 07:46:40;;;;;;;4.30;2.98;;;;;;;10.43;74.64;97453.98;1758564;81;25724;-87
2021/05/29 07:49:08;;;;;;;4.87;3.85;;;;;;;10.44;74.71;97455.66;1758139;80;25722;-82
2021/05/29 07:51:36;;;;;;;4.20;3.60;;;;;;;10.45;74.56;97456.80;1758005;80;26621;-84
2021/05/29 07:54:08;;;;;;;7.33;3.72;;;;;;;10.45;74.44;97458.66;1759703;81;25643;-89
2021/05/29 07:56:35;;;;;;;3.97;3.53;;;;;;;10.44;74.41;97462.40;1751647;80;27316;-87
2021/05/29 07:59:12;;;;;;;4.55;3.90;;;;;;;10.43;74.43;97453.47;1763482;79;26480;-86
2021/05/29 08:01:36;;;;;;;9.23;4.30;;;;;;;10.44;74.41;97463.23;1757767;80;25721;-85
2021/05/29 08:04:03;;;;;;;5.90;4.25;;;;;;;10.44;74.37;97457.83;1759721;80;25875;-87
2021/05/29 08:06:30;;;;;;;6.85;4.85;;;;;;;10.46;74.45;97467.08;1758128;81;25560;-86
2021/05/29 08:08:57;;;;;;;6.40;4.65;;;;;;;10.45;74.52;97458.14;1758034;81;28024;-82
2021/05/29 08:11:24;;;;;;;8.30;5.65;;;;;;;10.45;74.58;97456.80;1758910;80;25624;-81
2021/05/29 08:13:54;;;;;;;6.70;5.25;;;;;;;10.42;74.59;97462.60;1759308;80;25714;-83
2021/05/29 08:16:23;;;;;;;8.40;6.00;;;;;;;10.40;74.76;97465.19;1757200;81;25755;-82
2021/05/29 08:18:51;;;;;;;6.70;5.62;;;;;;;10.42;74.89;97463.13;1765627;79;25609;-80
2021/05/29 08:21:18;;;;;;;8.28;6.17;;;;;;;10.45;75.09;97464.89;1756835;81;28305;-90
2021/05/29 08:23:45;;;;;;;8.33;5.95;;;;;;;10.49;75.16;97467.18;1753433;81;25773;-88
2021/05/29 08:26:11;;;;;;;9.78;6.08;;;;;;;10.49;75.22;97461.27;1736358;81;25641;-82
2021/05/29 08:28:38;;;;;;;7.03;6.15;;;;;;;10.54;75.09;97467.36;1735152;81;25779;-83
2021/05/29 08:31:05;;;;;;;7.22;6.35;;;;;;;10.58;75.02;97474.02;1758071;81;25489;-83
2021/05/29 08:33:32;;;;;;;9.30;6.05;;;;;;;10.60;74.95;97472.77;1757514;80;27461;-84
2021/05/29 08:35:59;;;;;;;8.35;6.58;;;;;;;10.63;74.83;97471.50;1764455;80;25701;-83
2021/05/29 08:38:26;;;;;;;8.93;7.03;;;;;;;10.65;74.81;97471.60;1762921;79;26289;-83
2021/05/29 08:40:53;;;;;;;7.03;6.28;;;;;;;10.67;74.81;97470.87;1772428;79;26317;-84
2021/05/29 08:43:19;;;;;;;6.53;5.70;;;;;;;10.71;74.99;97469.95;1780260;79;25718;-83
2021/05/29 08:45:46;;;;;;;7.55;5.90;;;;;;;10.71;74.95;97469.95;1761315;79;27307;-87
2021/05/29 08:48:12;;;;;;;6.67;5.97;;;;;;;10.65;74.92;97465.38;1787727;79;25612;-86
2021/05/29 08:51:12;;;;;;;7.95;5.80;;;;;;;10.68;74.83;97470.36;1783537;78;25633;-87
2021/05/29 08:53:08;;;;;;;7.95;5.53;;;;;;;10.65;74.94;97468.08;1757917;79;25680;-84
2021/05/29 08:55:35;;;;;;;10.75;5.83;;;;;;;10.69;74.89;97472.85;1761149;79;25587;-83
2021/05/29 08:58:01;;;;;;;8.48;5.80;;;;;;;10.77;74.95;97472.63;1782397;79;27422;-85
2021/05/29 09:00:28;;;;;;;7.22;5.85;;;;;;;10.80;75.04;97466.80;1792833;79;25690;-85
2021/05/29 09:03:05;;;;;;;7.17;5.62;;;;;;;10.82;75.20;97467.95;1803857;78;25565;-83
2021/05/29 09:05:53;;;;;;;8.40;5.53;;;;;;;10.84;75.07;97469.92;1798755;78;25992;-85
2021/05/29 09:08:25;;;;;;;11.33;6.95;;;;;;;10.84;74.97;97465.88;1786420;79;25664;-85
2021/05/29 09:10:51;;;;;;;11.08;7.08;;;;;;;10.90;74.95;97469.58;1791058;78;28300;-87
2021/05/29 09:13:24;;;;;;;8.45;6.28;;;;;;;10.96;74.98;97470.09;1797072;79;25677;-84
2021/05/29 09:16:03;;;;;;;7.95;5.58;;;;;;;10.97;74.65;97478.52;1767260;79;26273;-86
2021/05/29 09:18:44;;;;;;;9.43;6.08;;;;;;;10.98;74.46;97477.48;1774150;79;26242;-86
2021/05/29 09:21:32;;;;;;;6.37;5.45;;;;;;;10.98;74.31;97474.77;1779337;79;25658;-85
2021/05/29 09:24:07;;;;;;;14.95;9.83;;;;;;;11.01;74.15;97468.41;1786390;79;27329;-85
2021/05/29 09:26:52;;;;;;;12.55;9.65;;;;;;;11.05;74.36;97468.30;1779956;79;26209;-84
2021/05/29 09:29:29;;;;;;;21.75;12.25;;;;;;;11.10;74.41;97465.80;1762673;79;25604;-86
2021/05/29 09:32:06;;;;;;;14.75;8.85;;;;;;;11.10;74.22;97468.50;1797374;79;25748;-86
2021/05/29 09:34:39;;;;;;;13.48;9.23;;;;;;;11.18;74.22;97472.83;1785942;79;25851;-88
2021/05/29 09:37:17;;;;;;;10.15;7.25;;;;;;;11.22;74.02;97466.48;1779870;79;27324;-86
2021/05/29 09:39:47;;;;;;;6.85;5.40;;;;;;;11.28;73.82;97465.61;1792903;79;25769;-82
2021/05/29 09:42:18;;;;;;;7.45;4.60;;;;;;;11.38;73.72;97467.33;1796840;79;25696;-83
2021/05/29 09:44:46;;;;;;;6.78;5.30;;;;;;;11.44;73.54;97472.72;1782940;79;26510;-84
2021/05/29 09:47:15;;;;;;;6.78;5.50;;;;;;;11.54;73.72;97464.14;1769223;79;25622;-85
2021/05/29 09:49:51;;;;;;;6.00;5.03;;;;;;;11.65;73.82;97460.75;1788217;79;27999;-85
2021/05/29 09:52:27;;;;;;;6.95;5.05;;;;;;;11.74;73.90;97454.03;1763849;79;25626;-87
2021/05/29 09:54:57;;;;;;;7.08;4.45;;;;;;;11.85;73.64;97453.38;1769229;79;25595;-85
2021/05/29 09:57:24;;;;;;;7.95;4.47;;;;;;;11.93;73.33;97459.06;1771869;78;26596;-87
2021/05/29 10:00:00;;;;;;;6.70;4.22;;;;;;;11.94;73.05;97447.72;1781476;78;25653;-88
2021/05/29 10:02:28;;;;;;;7.10;4.22;;;;;;;12.04;73.33;97447.53;1787391;78;27402;-85
2021/05/29 10:04:56;;;;;;;5.22;3.80;;;;;;;12.11;73.15;97446.95;1766354;79;25609;-88
2021/05/29 10:07:40;;;;;;;4.30;3.45;;;;;;;12.18;73.18;97448.27;1765359;79;26366;-82
2021/05/29 10:10:08;;;;;;;4.45;3.55;;;;;;;12.32;73.01;97444.38;1763637;79;25676;-85
2021/05/29 10:12:35;;;;;;;4.25;3.80;;;;;;;12.51;72.52;97442.56;1777689;79;25642;-84
2021/05/29 10:15:02;;;;;;;3.45;3.15;;;;;;;12.63;71.97;97436.19;1803614;79;27527;-86
2021/05/29 10:17:30;;;;;;;5.47;3.47;;;;;;;12.74;71.50;97437.85;1790896;79;25629;-87
2021/05/29 10:19:58;;;;;;;3.92;3.37;;;;;;;12.83;71.07;97440.56;1779533;79;25653;-86
2021/05/29 10:22:28;;;;;;;4.70;3.60;;;;;;;12.89;71.05;97439.67;1791188;79;25904;-83
2021/05/29 10:24:56;;;;;;;5.25;4.25;;;;;;;12.96;70.59;97425.52;1784812;79;25571;-83
2021/05/29 10:27:28;;;;;;;4.45;2.90;;;;;;;13.07;70.51;97432.06;1780602;79;27320;-84
2021/05/29 10:29:59;;;;;;;2.65;2.40;;;;;;;13.21;70.12;97432.24;1798735;79;32204;-85
2021/05/29 10:32:27;;;;;;;3.17;2.50;;;;;;;13.32;69.61;97438.25;1807879;78;25728;-83
2021/05/29 10:35:07;;;;;;;3.95;2.98;;;;;;;13.44;69.28;97429.64;1783559;79;25673;-84
2021/05/29 10:37:43;;;;;;;3.62;2.85;;;;;;;13.55;68.87;97428.87;1802022;78;25622;-84
2021/05/29 10:40:34;;;;;;;4.67;3.60;;;;;;;13.62;68.21;97422.02;1756049;79;27527;-87
2021/05/29 10:43:20;;;;;;;4.58;2.98;;;;;;;13.69;68.58;97421.38;1759249;79;25761;-85
2021/05/29 10:45:58;;;;;;;5.25;3.10;;;;;;;13.69;67.86;97418.66;1763188;79;25609;-85
2021/05/29 10:48:28;;;;;;;4.50;3.35;;;;;;;13.64;67.37;97417.98;1764602;79;25743;-83
2021/05/29 10:51:05;;;;;;;5.08;3.02;;;;;;;13.58;67.57;97412.67;1766809;79;25725;-82
2021/05/29 10:53:48;;;;;;;5.30;3.20;;;;;;;13.75;67.49;97408.27;1786664;79;27424;-83
2021/05/29 10:56:23;;;;;;;4.65;2.75;;;;;;;14.03;67.93;97407.60;1784240;79;25672;-84
2021/05/29 10:59:12;;;;;;;3.60;2.90;;;;;;;14.28;67.89;97406.05;1775405;79;25602;-82
2021/05/29 11:01:49;;;;;;;3.45;3.10;;;;;;;14.34;67.10;97406.48;1759675;79;25837;-82
2021/05/29 11:04:23;;;;;;;3.75;3.35;;;;;;;14.21;67.16;97411.60;1772360;79;25599;-83
2021/05/29 11:07:01;;;;;;;4.37;3.00;;;;;;;14.17;66.66;97403.63;1809848;79;27563;-82
2021/05/29 11:09:47;;;;;;;6.60;3.27;;;;;;;14.12;66.75;97410.83;1797177;79;25682;-81
2021/05/29 11:12:15;;;;;;;4.12;3.10;;;;;;;14.19;66.83;97413.72;1764287;79;25669;-82
2021/05/29 11:14:58;;;;;;;4.40;3.12;;;;;;;14.50;66.62;97403.61;1764305;79;26412;-84
2021/05/29 11:17:30;;;;;;;5.47;2.72;;;;;;;14.90;65.90;97399.63;1765115;79;25730;-82
2021/05/29 11:20:22;;;;;;;6.60;3.52;;;;;;;15.00;65.16;97399.84;1769586;79;28168;-83
2021/05/29 11:22:49;;;;;;;6.20;3.30;;;;;;;15.04;65.52;97401.02;1758894;79;25648;-82
2021/05/29 11:25:20;;;;;;;4.42;3.22;;;;;;;15.05;64.73;97396.71;1754167;79;25611;-83
2021/05/29 11:27:49;;;;;;;5.50;3.35;;;;;;;15.05;64.35;97399.96;1770789;79;25682;-84
2021/05/29 11:30:32;;;;;;;4.87;3.47;;;;;;;15.04;63.93;97394.23;1787506;77;26096;-83
2021/05/29 11:33:18;;;;;;;8.18;3.90;;;;;;;15.00;63.65;97386.25;1766502;79;27387;-84
2021/05/29 11:35:33;;;;;;;5.67;3.85;;;;;;;14.96;63.58;97385.09;1745334;79;25606;-82
2021/05/29 11:38:18;;;;;;;6.90;4.05;;;;;;;14.94;63.65;97382.61;1764548;79;25666;-83
2021/05/29 11:41:09;;;;;;;5.20;3.50;;;;;;;14.83;63.82;97380.75;1771993;79;26382;-81
2021/05/29 11:43:49;;;;;;;4.55;3.70;;;;;;;14.72;63.86;97374.27;1773980;79;26103;-82
2021/05/29 11:46:28;;;;;;;6.05;3.80;;;;;;;14.96;63.41;97374.23;1772131;80;27485;-83
2021/05/29 11:49:08;;;;;;;4.15;3.40;;;;;;;15.15;62.95;97375.70;1742329;79;25537;-83
2021/05/29 11:51:37;;;;;;;14.68;8.55;;;;;;;15.16;62.37;97373.27;1770180;78;25568;-84